createdAt,value
2019-04-29T01:27:43.888Z,5.9
2019-04-29T01:38:28.790Z,5.8
2019-04-29T01:48:45.590Z,5.7
2019-04-29T01:59:32.589Z,5.1
2019-04-29T02:09:46.400Z,5.1
2019-04-29T02:20:02.665Z,4.9
2019-04-29T02:30:16.735Z,4.8
2019-04-29T02:40:30.063Z,4.7
2019-04-29T02:50:43.038Z,4.6
2019-04-29T03:01:17.963Z,4.3
2019-04-29T03:11:35.328Z,4.3
2019-04-29T03:21:48.386Z,4.2
2019-04-29T07:56:51.688Z,14.3
2019-04-29T08:10:32.377Z,15.5
2019-04-29T08:23:55.781Z,17.6
2019-04-29T08:38:48.994Z,20.1
2019-04-29T08:49:05.874Z,20.1
2019-04-29T09:01:14.066Z,22.1
2019-04-29T09:13:10.191Z,22.7
2019-04-29T09:25:38.911Z,22.5
2019-04-29T09:37:13.884Z,22.1
2019-04-29T09:48:39.570Z,22.1
2019-04-29T09:59:45.733Z,21.7
2019-04-29T10:10:02.096Z,21.3
2019-04-29T10:21:21.727Z,21.2
2019-04-29T10:31:32.864Z,21.6
2019-04-29T10:41:44.444Z,22.3
2019-04-29T10:52:34.368Z,24.3
2019-04-29T11:02:48.832Z,24.3
2019-04-29T11:18:34.195Z,24.9
2019-04-29T11:33:59.596Z,24.6
2019-04-29T11:44:14.647Z,24.6
2019-04-29T11:54:28.559Z,24.5
2019-04-29T12:05:14.812Z,24.4
2019-04-29T12:15:28.458Z,24.4
2019-04-29T12:53:47.663Z,23.2
2019-04-29T13:04:32.908Z,22.9
2019-04-29T13:15:36.440Z,22.7
2019-04-29T14:09:05.561Z,22.5
2019-04-29T14:19:39.793Z,22.4
2019-04-29T14:29:40.029Z,21.8
2019-04-29T14:39:54.495Z,21.1
2019-04-29T14:50:10.687Z,20.6
2019-04-29T15:00:21.329Z,20.0
2019-04-29T15:10:36.716Z,19.5
2019-04-29T15:20:46.471Z,19.0
2019-04-29T17:09:14.463Z,16.4
2019-04-29T17:52:32.577Z,14.7
2019-04-29T18:08:39.533Z,14.2
2019-04-29T18:49:07.608Z,13.5
2019-04-29T19:28:45.195Z,12.6
2019-04-29T19:40:42.636Z,12.4
2019-04-29T19:51:13.438Z,12.3
2019-04-29T20:01:13.396Z,12.2
2019-04-29T20:14:36.706Z,12.0
2019-04-29T20:25:37.667Z,12.0
2019-04-29T20:40:01.026Z,11.8
2019-04-29T20:51:48.897Z,11.8
2019-04-29T21:01:49.159Z,11.7
2019-04-29T21:12:00.723Z,11.7
2019-04-29T21:22:20.392Z,11.6
2019-04-29T21:32:25.840Z,11.5
2019-04-29T21:42:39.869Z,11.4
2019-04-29T21:52:55.379Z,11.4
2019-04-29T22:03:28.724Z,11.4
2019-04-29T22:14:27.108Z,11.3
2019-04-29T22:24:39.146Z,11.3
2019-04-29T22:35:50.066Z,11.2
2019-04-29T22:46:08.900Z,11.2
2019-04-29T22:58:11.864Z,11.1
2019-04-29T23:09:41.668Z,11.1
2019-04-29T23:19:52.707Z,11.1
2019-04-29T23:31:16.530Z,11.1
2019-04-29T23:41:32.987Z,11.0
